Time;durP1;ratioP1;P1;durP2;ratioP2;P2;SDS_P1;SDS_P2;PMS_P1;PMS_P2;Temp;Humidity;BMP_temperature;BMP_pressure;BME280_temperature;BME280_humidity;BME280_pressure;Samples;Min_cycle;Max_cycle;Signal;HPM_P1;HPM_P2
2021/05/03 00:01:47;;;;;;;2.55;1.88;;;;;;;7.41;49.47;100214.56;5038552;28;20053;-84
2021/05/03 00:04:13;;;;;;;3.85;1.92;;;;;;;7.40;49.68;100215.47;5039629;28;20402;-84
2021/05/03 00:06:39;;;;;;;3.60;1.80;;;;;;;7.38;49.63;100212.09;5038663;28;20053;-83
2021/05/03 00:09:06;;;;;;;3.65;1.92;;;;;;;7.37;49.86;100212.97;5035231;28;20171;-84
2021/05/03 00:11:32;;;;;;;4.47;1.80;;;;;;;7.36;49.78;100205.19;5038077;28;20437;-84
2021/05/03 00:13:59;;;;;;;2.63;1.95;;;;;;;7.33;49.85;100210.53;5038992;28;20049;-84
2021/05/03 00:16:25;;;;;;;4.90;1.92;;;;;;;7.31;49.92;100202.72;5040301;28;20053;-83
2021/05/03 00:18:51;;;;;;;3.65;1.98;;;;;;;7.29;49.94;100201.94;5037345;28;20050;-84
2021/05/03 00:21:17;;;;;;;2.83;2.17;;;;;;;7.27;50.04;100206.38;5038140;28;20132;-84
2021/05/03 00:23:44;;;;;;;3.38;1.88;;;;;;;7.24;49.91;100202.09;5039777;28;20056;-84
2021/05/03 00:26:11;;;;;;;4.30;2.08;;;;;;;7.24;50.20;100203.84;5038769;28;20064;-84
2021/05/03 00:28:38;;;;;;;3.92;2.00;;;;;;;7.23;50.37;100202.16;5039023;28;20498;-83
2021/05/03 00:31:05;;;;;;;4.40;2.40;;;;;;;7.20;50.20;100195.25;5038776;28;20053;-84
2021/05/03 00:33:32;;;;;;;2.65;2.15;;;;;;;7.20;50.22;100204.88;5039129;28;20046;-84
2021/05/03 00:35:58;;;;;;;2.20;2.03;;;;;;;7.17;50.67;100196.22;5027699;28;20576;-84
2021/05/03 00:38:24;;;;;;;2.47;2.22;;;;;;;7.15;50.44;100199.81;5017936;28;20076;-84
2021/05/03 00:40:51;;;;;;;2.63;1.90;;;;;;;7.11;50.36;100203.44;5018834;28;20061;-84
2021/05/03 00:43:18;;;;;;;2.72;2.20;;;;;;;7.09;50.72;100205.25;5017682;28;20100;-84
2021/05/03 00:45:45;;;;;;;2.50;2.05;;;;;;;7.05;50.80;100201.91;5020251;28;20128;-83
2021/05/03 00:48:11;;;;;;;2.30;2.05;;;;;;;7.02;51.02;100202.00;5018687;28;20053;-84
2021/05/03 00:50:38;;;;;;;3.92;2.28;;;;;;;7.00;51.03;100206.44;5035711;28;20080;-84
2021/05/03 00:53:05;;;;;;;4.65;2.63;;;;;;;6.99;51.29;100204.75;5040049;28;20495;-84
2021/05/03 00:55:32;;;;;;;3.33;2.33;;;;;;;6.99;51.17;100194.28;5038127;28;20053;-84
2021/05/03 00:57:59;;;;;;;4.35;2.20;;;;;;;7.00;51.33;100201.22;5039296;28;20049;-83
2021/05/03 01:00:27;;;;;;;4.13;1.90;;;;;;;7.02;51.70;100197.63;5039572;28;20049;-84
2021/05/03 01:02:54;;;;;;;3.38;2.15;;;;;;;7.04;51.60;100202.81;5037326;28;20106;-84
2021/05/03 01:05:22;;;;;;;5.47;2.30;;;;;;;7.06;52.25;100206.22;5039074;28;20053;-84
2021/05/03 01:07:48;;;;;;;3.03;2.30;;;;;;;7.10;51.70;100206.97;5039042;28;20049;-84
2021/05/03 01:10:15;;;;;;;5.68;2.58;;;;;;;7.12;52.02;100202.53;5037936;28;20195;-84
2021/05/03 01:12:41;;;;;;;3.00;2.30;;;;;;;7.15;51.96;100211.13;5038220;28;20054;-84
2021/05/03 01:15:10;;;;;;;3.13;1.90;;;;;;;7.19;52.08;100213.63;5037877;28;20412;-83
2021/05/03 01:17:38;;;;;;;3.40;2.17;;;;;;;7.21;52.25;100211.84;5037787;28;20064;-83
2021/05/03 01:20:16;;;;;;;4.22;2.50;;;;;;;7.25;52.39;100202.97;5038901;28;20481;-83
2021/05/03 01:22:42;;;;;;;2.50;2.20;;;;;;;7.28;52.10;100200.22;5038033;28;20049;-83
2021/05/03 01:25:10;;;;;;;4.22;2.10;;;;;;;7.32;52.21;100209.66;5039384;28;20465;-84
2021/05/03 01:27:36;;;;;;;3.72;2.55;;;;;;;7.35;52.17;100212.19;5037474;28;20123;-84
2021/05/03 01:30:05;;;;;;;2.95;2.20;;;;;;;7.39;52.35;100210.28;5035679;28;20418;-84
2021/05/03 01:32:33;;;;;;;3.95;2.22;;;;;;;7.41;52.34;100204.09;5018480;28;20058;-84
2021/05/03 01:34:59;;;;;;;3.22;2.33;;;;;;;7.46;52.10;100208.31;5018355;28;20046;-84
2021/05/03 01:37:26;;;;;;;2.20;1.83;;;;;;;7.49;52.01;100205.59;5017814;28;20053;-84
2021/05/03 01:39:52;;;;;;;2.70;2.28;;;;;;;7.49;52.03;100209.06;5033334;28;20061;-84
2021/05/03 01:42:18;;;;;;;2.35;2.10;;;;;;;7.50;52.22;100212.53;5039203;28;20049;-83
2021/05/03 01:44:45;;;;;;;2.25;1.98;;;;;;;7.50;51.92;100209.91;5038175;28;20049;-83
2021/05/03 01:47:12;;;;;;;2.88;1.90;;;;;;;7.47;51.82;100208.25;5039230;28;20562;-83
2021/05/03 01:49:39;;;;;;;3.08;1.88;;;;;;;7.45;51.79;100215.34;5037545;28;20421;-83
2021/05/03 01:52:06;;;;;;;2.90;1.92;;;;;;;7.43;51.74;100215.38;5037514;28;20470;-83
2021/05/03 01:54:32;;;;;;;3.50;1.90;;;;;;;7.39;51.78;100208.53;5038602;28;20299;-83
2021/05/03 01:56:59;;;;;;;2.58;1.80;;;;;;;7.37;51.81;100215.59;5037679;28;20049;-84
2021/05/03 01:59:32;;;;;;;6.70;2.58;;;;;;;7.36;52.02;100213.88;5021891;28;20080;-83
2021/05/03 02:01:58;;;;;;;1.95;1.75;;;;;;;7.34;51.84;100212.25;5018857;28;20499;-84
2021/05/03 02:04:24;;;;;;;5.93;2.20;;;;;;;7.30;51.81;100214.97;5018985;28;20099;-83
2021/05/03 02:06:51;;;;;;;3.50;2.15;;;;;;;7.28;52.27;100208.06;5018243;28;20065;-84
2021/05/03 02:09:17;;;;;;;3.50;2.38;;;;;;;7.25;52.07;100200.34;5017336;28;20050;-84
2021/05/03 02:11:43;;;;;;;3.03;2.35;;;;;;;7.22;52.19;100206.53;5023424;28;20052;-84
2021/05/03 02:14:10;;;;;;;4.45;2.35;;;;;;;7.19;52.02;100217.13;5037201;28;20046;-84
2021/05/03 02:16:36;;;;;;;3.85;2.38;;;;;;;7.14;52.19;100214.66;5037244;28;20049;-83
2021/05/03 02:19:03;;;;;;;3.30;2.50;;;;;;;7.11;52.54;100203.44;5034822;28;20115;-83
2021/05/03 02:21:29;;;;;;;4.88;2.88;;;;;;;7.07;52.37;100204.47;5034538;28;20403;-83
2021/05/03 02:23:55;;;;;;;3.47;2.40;;;;;;;7.02;52.39;100204.63;5034853;28;20100;-83
2021/05/03 02:26:22;;;;;;;3.92;2.55;;;;;;;6.98;52.38;100206.50;5023168;28;20104;-83
2021/05/03 02:28:50;;;;;;;3.03;2.53;;;;;;;6.93;52.62;100205.81;5032829;28;20079;-83
2021/05/03 02:31:18;;;;;;;3.80;2.47;;;;;;;6.91;52.60;100203.22;5035142;28;20469;-84
2021/05/03 02:33:45;;;;;;;3.88;2.72;;;;;;;6.88;52.91;100195.47;5037000;28;20095;-84
2021/05/03 02:36:11;;;;;;;5.60;2.58;;;;;;;6.85;52.57;100203.47;5038932;28;20057;-83
2021/05/03 02:38:37;;;;;;;3.75;2.55;;;;;;;6.82;52.97;100210.53;5037107;28;20103;-83
2021/05/03 02:41:03;;;;;;;4.57;2.67;;;;;;;6.80;52.98;100209.75;5019051;28;20058;-83
2021/05/03 02:43:29;;;;;;;4.40;2.67;;;;;;;6.76;53.02;100208.97;5019867;28;20046;-83
2021/05/03 02:45:56;;;;;;;4.35;2.40;;;;;;;6.71;53.14;100201.31;5019349;28;20057;-83
2021/05/03 02:48:22;;;;;;;5.22;2.80;;;;;;;6.69;53.07;100203.09;5018646;28;20050;-83
2021/05/03 02:50:48;;;;;;;5.22;2.65;;;;;;;6.65;53.29;100202.34;5018703;28;20073;-83
2021/05/03 02:53:14;;;;;;;5.45;2.58;;;;;;;6.63;53.65;100193.72;5024675;28;20045;-83
2021/05/03 02:55:40;;;;;;;4.78;2.55;;;;;;;6.61;53.67;100211.22;5039182;28;20133;-83
2021/05/03 02:58:07;;;;;;;5.82;2.97;;;;;;;6.61;53.77;100210.34;5038268;28;20557;-84
2021/05/03 03:00:35;;;;;;;5.30;2.78;;;;;;;6.62;54.50;100212.06;5038496;28;20065;-83
2021/05/03 03:03:03;;;;;;;3.72;2.60;;;;;;;6.63;54.51;100204.19;5040280;28;20056;-84
2021/05/03 03:05:30;;;;;;;4.97;2.33;;;;;;;6.67;54.01;100210.16;5038292;28;20045;-84
2021/05/03 03:08:04;;;;;;;7.90;2.63;;;;;;;6.71;54.13;100205.66;5040248;28;20053;-84
2021/05/03 03:10:31;;;;;;;7.63;3.30;;;;;;;6.74;54.38;100208.19;5040979;28;20049;-84
2021/05/03 03:13:00;;;;;;;3.90;2.65;;;;;;;6.78;54.57;100205.41;5033973;28;20045;-83
2021/05/03 03:15:29;;;;;;;4.82;2.78;;;;;;;6.81;54.58;100201.84;5020722;28;20081;-84
2021/05/03 03:17:56;;;;;;;5.72;2.78;;;;;;;6.84;54.46;100201.72;5019345;28;20053;-83
2021/05/03 03:20:22;;;;;;;5.95;3.10;;;;;;;6.89;54.27;100196.34;5018104;28;20053;-84
2021/05/03 03:22:48;;;;;;;5.63;3.40;;;;;;;6.92;54.47;100196.25;5017001;28;20054;-83
2021/05/03 03:25:18;;;;;;;3.88;3.47;;;;;;;6.96;54.67;100199.59;5019654;28;20557;-83
2021/05/03 03:27:45;;;;;;;4.93;2.95;;;;;;;6.99;54.41;100192.50;5019250;28;20411;-83
2021/05/03 03:30:13;;;;;;;4.85;3.08;;;;;;;7.02;54.70;100195.00;5018419;28;20054;-84
2021/05/03 03:32:43;;;;;;;3.42;2.90;;;;;;;7.07;54.85;100192.25;5019874;28;20424;-84
2021/05/03 03:35:12;;;;;;;4.95;2.97;;;;;;;7.09;54.78;100185.16;5020708;28;20384;-84
2021/05/03 03:37:39;;;;;;;6.05;3.80;;;;;;;7.11;54.45;100187.75;5019485;28;20053;-84
2021/05/03 03:40:06;;;;;;;4.72;3.80;;;;;;;7.13;54.33;100188.53;5020953;28;20053;-84
2021/05/03 03:42:32;;;;;;;7.18;3.22;;;;;;;7.13;54.45;100194.63;5039255;28;20395;-83
2021/05/03 03:44:58;;;;;;;6.07;3.80;;;;;;;7.14;54.24;100185.03;5039170;28;20091;-84
2021/05/03 03:47:25;;;;;;;6.13;3.40;;;;;;;7.13;54.66;100178.91;5038606;28;20057;-84
2021/05/03 03:49:52;;;;;;;4.57;3.42;;;;;;;7.14;54.68;100175.38;5053841;28;20046;-84
2021/05/03 03:52:19;;;;;;;4.32;3.30;;;;;;;7.15;54.51;100179.72;5038386;28;20514;-84
2021/05/03 03:54:45;;;;;;;4.75;3.58;;;;;;;7.16;54.61;100186.66;5037211;28;20483;-84
2021/05/03 03:57:12;;;;;;;3.53;3.05;;;;;;;7.17;54.94;100182.28;5039425;28;20053;-84
2021/05/03 03:59:42;;;;;;;4.50;3.70;;;;;;;7.19;54.65;100180.47;5037245;28;20059;-83
2021/05/03 04:02:08;;;;;;;5.57;3.60;;;;;;;7.20;54.61;100178.69;5037464;28;20053;-84
2021/05/03 04:04:38;;;;;;;4.22;3.20;;;;;;;7.22;54.62;100176.88;5036847;28;20050;-84
2021/05/03 04:07:14;;;;;;;4.60;3.08;;;;;;;7.25;54.54;100179.41;5036747;28;20075;-83
2021/05/03 04:25:41;;;;;;;6.13;3.72;;;;;;;7.30;54.31;100190.56;5018242;28;20057;-84
2021/05/03 04:28:09;;;;;;;5.38;3.25;;;;;;;7.28;54.47;100190.59;5018744;28;20050;-84
2021/05/03 04:30:41;;;;;;;4.75;3.72;;;;;;;7.28;54.54;100190.59;5017061;28;20061;-84
2021/05/03 04:33:07;;;;;;;4.00;3.35;;;;;;;7.30;54.56;100187.94;5016468;28;20487;-84
2021/05/03 04:35:33;;;;;;;5.13;3.22;;;;;;;7.29;54.44;100183.63;5022619;28;20579;-84
2021/05/03 04:37:59;;;;;;;4.80;3.40;;;;;;;7.28;54.87;100176.66;5036499;28;20084;-83
2021/05/03 04:40:26;;;;;;;5.55;4.15;;;;;;;7.26;54.57;100175.88;5036371;28;20045;-84
2021/05/03 04:42:54;;;;;;;5.90;4.20;;;;;;;7.22;54.57;100182.97;5035035;28;20136;-84
2021/05/03 04:45:20;;;;;;;5.55;4.38;;;;;;;7.17;54.96;100177.91;5036102;28;20046;-84
2021/05/03 04:47:46;;;;;;;7.85;4.60;;;;;;;7.12;54.69;100178.97;5035084;28;20054;-83
2021/05/03 04:50:12;;;;;;;5.22;3.97;;;;;;;7.07;54.75;100173.06;5035740;28;20095;-83
2021/05/03 04:52:39;;;;;;;7.90;4.57;;;;;;;7.00;55.05;100175.03;5037047;28;20071;-84
2021/05/03 04:55:06;;;;;;;7.55;4.88;;;;;;;6.95;55.41;100172.56;5035614;28;20556;-83
2021/05/03 04:57:33;;;;;;;8.10;4.50;;;;;;;6.90;55.32;100175.38;5036955;28;20053;-84
2021/05/03 04:59:59;;;;;;;6.07;4.32;;;;;;;6.82;55.46;100172.16;5036859;28;20099;-84
2021/05/03 05:02:25;;;;;;;9.75;4.43;;;;;;;6.78;55.87;100165.31;5034549;28;20141;-84
2021/05/03 05:04:52;;;;;;;5.40;4.10;;;;;;;6.73;55.79;100167.25;5037173;28;20114;-84
2021/05/03 05:07:20;;;;;;;7.85;4.80;;;;;;;6.71;56.06;100179.50;5036120;28;20053;-84
2021/05/03 05:09:46;;;;;;;5.97;4.15;;;;;;;6.70;56.09;100183.03;5020586;28;20054;-84
2021/05/03 05:12:16;;;;;;;6.65;4.38;;;;;;;6.70;56.16;100183.91;5034401;28;20053;-83
2021/05/03 05:14:42;;;;;;;6.13;3.70;;;;;;;6.72;56.35;100191.69;5035196;28;20056;-83
2021/05/03 05:17:09;;;;;;;7.95;3.78;;;;;;;6.76;56.26;100202.00;5034319;28;20054;-84
2021/05/03 05:19:36;;;;;;;4.32;3.10;;;;;;;6.81;56.18;100196.63;5035865;28;20064;-83
2021/05/03 05:22:03;;;;;;;6.60;3.53;;;;;;;6.84;56.48;100196.50;5034644;28;20049;-83
2021/05/03 05:24:29;;;;;;;5.55;3.63;;;;;;;6.88;56.16;100190.25;5034897;28;20107;-83
2021/05/03 05:26:56;;;;;;;4.68;3.75;;;;;;;6.94;56.38;100190.94;5034008;28;20049;-82
2021/05/03 05:29:24;;;;;;;6.60;3.63;;;;;;;6.97;56.39;100185.59;5033503;28;20056;-83
2021/05/03 05:31:51;;;;;;;6.32;4.00;;;;;;;7.01;56.43;100193.31;5035759;28;20103;-82
2021/05/03 05:34:17;;;;;;;3.88;3.47;;;;;;;7.06;56.27;100194.91;5034812;28;20053;-83
2021/05/03 05:36:43;;;;;;;5.20;3.65;;;;;;;7.09;56.41;100190.41;5034206;28;20057;-83
2021/05/03 05:39:11;;;;;;;5.03;3.60;;;;;;;7.13;56.19;100192.00;5033481;28;20140;-83
2021/05/03 05:41:39;;;;;;;6.30;4.10;;;;;;;7.14;56.46;100183.25;5019063;28;20123;-83
2021/05/03 05:44:06;;;;;;;6.35;3.80;;;;;;;7.17;56.21;100191.00;5013518;28;20054;-83
2021/05/03 05:46:34;;;;;;;5.22;3.55;;;;;;;7.19;56.32;100187.47;5018539;28;20057;-83
2021/05/03 05:49:00;;;;;;;6.38;4.30;;;;;;;7.21;56.27;100188.28;5017421;28;20049;-83
2021/05/03 05:51:27;;;;;;;5.07;3.70;;;;;;;7.22;55.98;100189.97;5015251;28;20058;-83
2021/05/03 05:53:53;;;;;;;5.43;3.88;;;;;;;7.21;56.49;100185.66;5013962;28;20427;-83
2021/05/03 05:56:19;;;;;;;5.55;4.10;;;;;;;7.21;56.41;100188.28;5013367;28;20514;-83
2021/05/03 05:58:45;;;;;;;6.03;4.07;;;;;;;7.21;56.27;100186.50;5014589;28;20053;-83
2021/05/03 06:01:11;;;;;;;5.55;3.88;;;;;;;7.21;56.33;100183.88;5014757;28;20053;-84
2021/05/03 06:03:38;;;;;;;7.22;4.28;;;;;;;7.21;56.30;100183.88;5014971;28;20096;-83
2021/05/03 06:06:05;;;;;;;6.00;4.10;;;;;;;7.24;56.39;100182.91;5013381;28;20526;-83
2021/05/03 06:08:31;;;;;;;5.25;3.97;;;;;;;7.25;56.80;100179.41;5013715;28;20053;-83
2021/05/03 06:10:57;;;;;;;6.55;4.55;;;;;;;7.24;57.04;100182.91;5012522;28;20057;-83
2021/05/03 06:13:23;;;;;;;7.43;4.35;;;;;;;7.24;56.73;100178.53;5015893;28;20064;-83
2021/05/03 06:15:49;;;;;;;5.53;4.10;;;;;;;7.24;57.02;100180.28;5018078;28;20045;-83
2021/05/03 06:18:15;;;;;;;7.95;4.43;;;;;;;7.23;56.86;100181.19;5018569;28;20049;-83
2021/05/03 06:20:41;;;;;;;5.70;4.40;;;;;;;7.21;56.88;100183.88;5016661;28;20053;-83
2021/05/03 06:23:11;;;;;;;8.75;4.50;;;;;;;7.23;57.24;100186.44;5018229;28;20451;-83
2021/05/03 06:25:37;;;;;;;8.30;4.75;;;;;;;7.26;57.01;100173.25;5017796;28;20053;-83
2021/05/03 06:28:04;;;;;;;8.43;4.97;;;;;;;7.28;57.63;100179.25;5017816;28;20070;-83
2021/05/03 06:30:30;;;;;;;8.27;5.25;;;;;;;7.31;57.79;100181.78;5018244;28;20491;-83
2021/05/03 06:32:56;;;;;;;10.50;5.72;;;;;;;7.36;57.38;100182.47;5017652;28;20069;-82
2021/05/03 06:35:23;;;;;;;6.57;4.63;;;;;;;7.40;57.33;100178.81;5027341;28;20093;-83
2021/05/03 06:37:50;;;;;;;6.15;4.70;;;;;;;7.47;57.51;100176.00;5035973;28;20050;-83
2021/05/03 06:40:17;;;;;;;7.70;5.30;;;;;;;7.52;57.79;100180.13;5036532;28;20453;-83
2021/05/03 06:42:44;;;;;;;8.13;5.70;;;;;;;7.60;57.62;100185.09;5035832;28;20061;-83
2021/05/03 06:45:11;;;;;;;8.98;5.25;;;;;;;7.69;57.77;100179.50;5035082;28;20049;-83
2021/05/03 06:47:37;;;;;;;8.27;5.53;;;;;;;7.79;57.75;100184.38;5035253;28;20100;-83
2021/05/03 06:50:05;;;;;;;9.05;5.38;;;;;;;7.88;57.96;100177.91;5034271;28;20053;-83
2021/05/03 06:52:32;;;;;;;7.85;4.95;;;;;;;7.98;57.89;100186.28;5021162;28;20053;-83
2021/05/03 06:54:58;;;;;;;9.57;5.78;;;;;;;8.06;57.69;100176.34;5016375;28;20135;-83
2021/05/03 06:57:25;;;;;;;6.22;4.95;;;;;;;8.15;57.59;100186.47;5016548;28;20503;-83
2021/05/03 06:59:51;;;;;;;7.68;4.97;;;;;;;8.27;57.17;100179.03;5028045;28;20053;-83
2021/05/03 07:02:17;;;;;;;7.30;4.50;;;;;;;8.35;57.04;100172.53;5034723;28;20053;-83
2021/05/03 07:04:45;;;;;;;7.57;4.75;;;;;;;8.47;56.67;100178.22;5034468;28;20084;-82
2021/05/03 07:07:11;;;;;;;9.38;4.90;;;;;;;8.58;56.48;100176.03;5034867;28;20061;-82
2021/05/03 07:09:37;;;;;;;7.30;4.80;;;;;;;8.68;56.72;100180.88;5035161;28;20414;-83
2021/05/03 07:12:08;;;;;;;8.05;5.18;;;;;;;8.77;55.93;100172.63;5036516;28;20053;-83
2021/05/03 07:14:36;;;;;;;5.53;4.55;;;;;;;8.86;55.47;100176.63;5036034;28;20136;-83
2021/05/03 07:17:06;;;;;;;7.05;4.72;;;;;;;8.92;55.31;100180.75;5034622;28;20049;-83
2021/05/03 07:19:34;;;;;;;6.97;5.18;;;;;;;8.96;54.94;100177.94;5035437;28;20084;-82
2021/05/03 07:22:05;;;;;;;6.22;4.78;;;;;;;9.03;55.15;100175.03;5033288;28;20057;-83
2021/05/03 07:24:32;;;;;;;7.93;4.80;;;;;;;9.10;55.13;100179.09;5019154;28;20129;-83
2021/05/03 07:26:59;;;;;;;8.52;5.43;;;;;;;9.14;54.91;100183.28;5015720;28;20055;-83
2021/05/03 07:29:25;;;;;;;6.90;5.43;;;;;;;9.21;54.96;100176.84;5015409;28;20511;-83
2021/05/03 07:31:51;;;;;;;7.28;5.40;;;;;;;9.28;54.55;100166.06;5015459;28;20046;-82
2021/05/03 07:34:18;;;;;;;8.20;5.70;;;;;;;9.33;54.12;100179.84;5015931;28;20057;-82
2021/05/03 07:36:44;;;;;;;11.10;5.05;;;;;;;9.39;54.17;100167.28;5017117;28;20050;-83
2021/05/03 07:39:11;;;;;;;8.13;5.55;;;;;;;9.45;54.09;100158.25;5028649;28;20077;-83
2021/05/03 07:41:40;;;;;;;6.13;4.97;;;;;;;9.51;53.99;100165.88;5036569;28;20049;-83
2021/05/03 07:44:08;;;;;;;8.77;5.53;;;;;;;9.57;53.57;100167.34;5037243;28;20530;-83
2021/05/03 07:46:35;;;;;;;7.63;5.55;;;;;;;9.61;53.37;100157.56;5036471;28;20561;-84
2021/05/03 07:49:01;;;;;;;8.32;6.10;;;;;;;9.65;53.37;100164.38;5035795;28;20045;-83
2021/05/03 07:51:28;;;;;;;8.88;4.95;;;;;;;9.68;53.61;100148.44;5035072;28;20057;-82
2021/05/03 07:53:55;;;;;;;8.18;5.32;;;;;;;9.74;53.56;100148.19;5036698;28;20103;-83
2021/05/03 07:56:21;;;;;;;8.88;5.60;;;;;;;9.82;53.51;100155.69;5036321;28;20526;-83
2021/05/03 07:58:49;;;;;;;6.05;5.30;;;;;;;9.90;53.32;100157.94;5036112;28;20049;-83
2021/05/03 08:01:16;;;;;;;8.80;5.30;;;;;;;10.02;53.12;100151.28;5035553;28;20065;-83
2021/05/03 08:03:43;;;;;;;6.20;4.95;;;;;;;10.15;53.06;100162.03;5036126;28;20109;-83
2021/05/03 08:06:13;;;;;;;10.95;5.15;;;;;;;10.25;53.01;100146.66;5036595;28;20087;-83
2021/05/03 08:08:41;;;;;;;8.63;5.57;;;;;;;10.36;52.53;100154.00;5035816;28;20080;-83
2021/05/03 08:11:08;;;;;;;7.13;5.30;;;;;;;10.49;52.07;100154.28;5035730;28;20053;-83
2021/05/03 08:13:34;;;;;;;6.88;5.35;;;;;;;10.57;51.78;100159.16;5035917;28;20057;-83
2021/05/03 08:16:03;;;;;;;8.27;5.65;;;;;;;10.64;51.63;100156.13;5050416;28;20053;-83
2021/05/03 08:18:30;;;;;;;8.40;5.90;;;;;;;10.70;50.97;100144.44;5027931;28;20058;-83
2021/05/03 08:20:57;;;;;;;9.00;5.72;;;;;;;10.76;51.08;100152.03;5026680;28;20056;-84
2021/05/03 08:23:26;;;;;;;9.68;6.00;;;;;;;10.80;51.01;100153.56;5035575;28;20060;-83
2021/05/03 08:25:55;;;;;;;10.43;6.15;;;;;;;10.84;50.98;100145.53;5035411;28;20080;-83
2021/05/03 08:28:22;;;;;;;8.05;5.63;;;;;;;10.90;51.13;100147.81;5035121;28;20498;-83
2021/05/03 08:30:50;;;;;;;11.27;5.75;;;;;;;10.94;50.81;100150.22;5035607;28;20045;-84
2021/05/03 08:33:17;;;;;;;9.50;6.40;;;;;;;11.03;50.77;100145.41;5034377;28;20053;-83
2021/05/03 08:35:44;;;;;;;14.05;6.28;;;;;;;11.11;50.66;100150.25;5019060;28;20049;-84
2021/05/03 08:38:10;;;;;;;7.88;5.60;;;;;;;11.18;50.26;100163.03;5014600;28;20057;-84
2021/05/03 08:40:36;;;;;;;7.97;5.85;;;;;;;11.27;50.32;100150.28;5014988;28;20049;-83
2021/05/03 08:43:04;;;;;;;7.10;5.07;;;;;;;11.37;50.50;100153.28;5014594;28;20050;-83
2021/05/03 08:45:32;;;;;;;10.38;6.13;;;;;;;11.47;50.21;100136.03;5015490;28;20575;-83
2021/05/03 08:48:21;;;;;;;8.30;5.97;;;;;;;11.58;49.88;100143.34;5014525;28;20430;-83
2021/05/03 08:50:53;;;;;;;9.77;5.70;;;;;;;11.72;49.66;100137.31;5022752;28;20499;-83
2021/05/03 08:53:38;;;;;;;7.30;5.25;;;;;;;11.85;49.37;100150.69;5035377;28;20049;-83
2021/05/03 08:56:04;;;;;;;9.90;6.38;;;;;;;11.95;48.70;100136.03;5035557;28;20049;-84
2021/05/03 08:58:31;;;;;;;10.20;5.65;;;;;;;12.05;48.81;100135.50;5035626;28;20136;-83
2021/05/03 09:00:57;;;;;;;7.88;5.90;;;;;;;12.17;48.99;100149.81;5035520;28;20064;-84
2021/05/03 09:03:23;;;;;;;14.10;6.50;;;;;;;12.28;48.94;100133.34;5035325;28;20053;-83
2021/05/03 09:05:50;;;;;;;12.07;6.05;;;;;;;12.40;48.24;100150.28;5025008;28;20068;-83
2021/05/03 09:08:23;;;;;;;8.10;5.97;;;;;;;12.47;47.22;100141.91;5028302;28;20058;-83
2021/05/03 09:10:50;;;;;;;9.27;6.32;;;;;;;12.59;47.34;100136.81;5033492;28;20046;-83
2021/05/03 09:13:24;;;;;;;10.27;6.32;;;;;;;12.67;46.99;100154.88;5034384;28;20058;-84
2021/05/03 09:15:50;;;;;;;11.52;6.78;;;;;;;12.75;46.95;100136.78;5032700;28;20050;-84
2021/05/03 09:18:17;;;;;;;8.43;6.45;;;;;;;12.82;46.77;100134.63;5034024;28;20049;-83
2021/05/03 09:20:43;;;;;;;10.88;6.35;;;;;;;12.88;46.78;100124.53;5032426;28;20057;-83
2021/05/03 09:23:42;;;;;;;9.05;6.22;;;;;;;12.94;46.37;100127.72;5033338;28;20132;-83
2021/05/03 09:26:06;;;;;;;9.40;6.13;;;;;;;13.05;46.25;100125.28;5032120;28;20111;-83
2021/05/03 09:28:32;;;;;;;9.15;6.40;;;;;;;13.13;45.85;100122.16;5035029;28;20057;-83
2021/05/03 09:31:00;;;;;;;7.47;6.18;;;;;;;13.20;45.62;100112.06;5049535;28;20140;-83
2021/05/03 09:33:27;;;;;;;8.00;5.88;;;;;;;13.27;45.68;100111.56;5034636;28;20060;-84
2021/05/03 09:36:09;;;;;;;10.45;6.60;;;;;;;13.29;43.66;100104.41;5022618;28;20061;-84
2021/05/03 09:38:50;;;;;;;9.15;5.82;;;;;;;13.37;44.23;100103.06;5015660;28;20080;-85
2021/05/03 09:41:18;;;;;;;8.10;5.68;;;;;;;13.47;44.87;100096.25;5014124;28;20050;-83
2021/05/03 09:43:50;;;;;;;7.15;6.00;;;;;;;13.52;43.59;100114.47;5014071;28;20144;-84
2021/05/03 09:46:34;;;;;;;8.55;6.25;;;;;;;13.62;43.61;100094.44;5014195;28;20050;-83
2021/05/03 09:49:07;;;;;;;11.32;6.20;;;;;;;13.75;43.53;100096.31;5013985;28;20068;-84
2021/05/03 09:51:35;;;;;;;9.48;5.95;;;;;;;13.85;44.02;100100.03;5013807;28;20487;-83
2021/05/03 09:54:17;;;;;;;7.15;6.15;;;;;;;13.90;43.29;100091.78;5012214;28;20046;-83
2021/05/03 09:56:46;;;;;;;7.20;5.88;;;;;;;13.98;43.85;100096.59;5013452;28;20462;-84
2021/05/03 09:59:25;;;;;;;8.48;6.20;;;;;;;14.02;42.27;100092.78;5012112;28;20506;-84
2021/05/03 10:02:19;;;;;;;10.52;7.00;;;;;;;14.06;42.00;100081.88;5012206;28;20506;-84
2021/05/03 10:05:05;;;;;;;9.65;6.60;;;;;;;14.15;43.49;100087.50;5019868;28;20051;-83
2021/05/03 10:07:34;;;;;;;8.43;6.32;;;;;;;14.23;43.67;100079.91;5032923;28;20052;-83
2021/05/03 10:10:18;;;;;;;15.15;6.20;;;;;;;14.29;44.69;100068.91;5033063;28;20061;-84
2021/05/03 10:12:45;;;;;;;9.40;6.68;;;;;;;14.39;43.84;100066.47;5032954;28;20053;-83
2021/05/03 10:15:14;;;;;;;8.60;6.10;;;;;;;14.48;43.25;100059.72;5031579;28;20456;-83
2021/05/03 10:17:42;;;;;;;8.77;5.82;;;;;;;14.60;43.98;100055.34;5033329;28;20057;-83
2021/05/03 10:20:10;;;;;;;6.90;5.78;;;;;;;14.75;43.68;100063.19;5032944;28;20053;-83
2021/05/03 10:22:36;;;;;;;9.13;5.60;;;;;;;14.92;44.03;100049.63;5033023;28;20057;-84
2021/05/03 10:25:07;;;;;;;7.70;5.55;;;;;;;15.08;42.58;100048.56;5033194;28;20049;-83
2021/05/03 10:27:38;;;;;;;9.13;5.78;;;;;;;15.24;42.07;100040.34;5035674;28;20129;-83
2021/05/03 10:30:05;;;;;;;7.85;6.20;;;;;;;15.41;44.16;100028.53;5032966;28;20053;-83
2021/05/03 10:32:34;;;;;;;9.75;6.72;;;;;;;15.59;42.65;100039.56;5034345;28;20057;-83
2021/05/03 10:35:02;;;;;;;7.45;5.95;;;;;;;15.76;42.35;100026.84;5031849;28;20475;-84
2021/05/03 10:37:28;;;;;;;7.88;6.68;;;;;;;15.89;40.75;100035.59;5031736;28;20064;-84
2021/05/03 10:40:29;;;;;;;9.88;6.78;;;;;;;15.97;39.40;100034.22;5031592;28;20050;-84
2021/05/03 10:43:01;;;;;;;9.48;6.80;;;;;;;16.03;36.48;100033.72;5032704;28;20430;-84
2021/05/03 10:48:47;;;;;;;8.10;7.00;;;;;;;16.20;38.13;100019.19;5033001;28;20056;-84
2021/05/03 10:54:15;;;;;;;;;;;;;;;16.54;39.61;100011.25;5030172;28;20045;-84
2021/05/03 10:56:41;;;;;;;9.93;6.10;;;;;;;16.85;41.74;99996.50;5032001;28;20388;-84
2021/05/03 10:59:12;;;;;;;7.82;6.55;;;;;;;17.06;39.00;99999.28;5029859;28;20058;-84
2021/05/03 11:01:54;;;;;;;8.70;7.15;;;;;;;17.23;35.99;100008.53;5018125;28;20073;-84
2021/05/03 11:04:30;;;;;;;7.38;6.65;;;;;;;17.41;37.62;99995.56;5054045;28;20041;-84
2021/05/03 11:06:56;;;;;;;9.50;6.32;;;;;;;17.54;37.69;100002.53;5056562;28;20498;-84
2021/05/03 11:09:29;;;;;;;9.77;6.28;;;;;;;17.64;37.06;99986.66;5054390;28;20090;-84
2021/05/03 11:12:00;;;;;;;8.13;6.25;;;;;;;17.72;36.42;99989.53;5056360;28;20053;-84
2021/05/03 11:14:31;;;;;;;9.20;6.30;;;;;;;17.82;36.72;99974.47;5040152;28;20050;-84
2021/05/03 11:17:00;;;;;;;7.00;6.30;;;;;;;17.91;36.79;99966.66;5036988;28;20053;-84
2021/05/03 11:19:33;;;;;;;9.45;6.28;;;;;;;17.98;37.71;99974.00;5036635;28;20049;-84
2021/05/03 11:21:59;;;;;;;8.18;5.68;;;;;;;18.13;38.26;99967.53;5048814;28;20689;-84
2021/05/03 11:24:44;;;;;;;9.70;6.60;;;;;;;18.26;36.26;99965.50;5056582;28;20460;-85
2021/05/03 11:27:31;;;;;;;8.80;6.50;;;;;;;18.44;35.99;99963.06;5015434;28;20049;-84
2021/05/03 11:32:33;;;;;;;6.57;5.85;;;;;;;18.52;33.09;99965.06;5033382;28;20054;-84
2021/05/03 11:35:10;;;;;;;7.60;5.85;;;;;;;18.47;35.11;99962.78;5035318;28;20056;-83
2021/05/03 11:37:43;;;;;;;8.45;6.63;;;;;;;18.45;35.17;99963.88;5035560;28;20045;-84
2021/05/03 11:45:30;;;;;;;7.18;5.75;;;;;;;19.13;35.42;99954.41;5035361;28;20049;-84
2021/05/03 11:47:59;;;;;;;6.57;5.53;;;;;;;19.26;33.27;99952.31;5035089;28;20049;-84
2021/05/03 11:50:28;;;;;;;9.18;5.85;;;;;;;19.28;33.82;99944.19;5035427;28;20057;-84
2021/05/03 11:52:59;;;;;;;;;;;;;;;19.21;34.13;99940.41;5036016;28;20451;-84
2021/05/03 11:55:25;;;;;;;7.32;6.03;;;;;;;19.07;33.44;99946.97;5034690;28;20389;-84
2021/05/03 11:57:52;;;;;;;8.05;6.05;;;;;;;18.83;33.67;99956.16;5035721;28;20072;-83
2021/05/03 12:00:22;;;;;;;7.65;6.50;;;;;;;18.68;33.67;99942.34;5034175;28;20061;-84
2021/05/03 12:03:01;;;;;;;6.57;5.90;;;;;;;18.70;33.64;99938.59;5019518;28;20069;-84
2021/05/03 12:05:27;;;;;;;6.60;5.85;;;;;;;18.91;34.66;99942.97;5015313;28;20061;-84
2021/05/03 12:07:53;;;;;;;7.55;6.45;;;;;;;19.17;34.53;99925.66;5015959;28;20495;-84